全部
Wudinna Airport (Wudinna, South Australia) WUD 天氣
|
Wudinna, South Australia (YWUD)
晴天
多風 |
|
11 °C |
There is no TAF data available at WUD or any nearby airports.
WUD近期METAR歷史資料
| Date | Time (ACST) | Flight Rules | Wind Dir. | Speed | Type | Height AGL (ft) | Visibility | Temp (°C) | Temp (°F) | Dew Point (°C) | Dew Point (°F) | Rel. Humid. | Pressure | Density Altitude | Remarks |
|---|---|---|---|---|---|---|---|---|---|---|---|---|---|---|---|
| 04-五月 | 02:30 | n/a | 330° | 11 kt | Missing | 11° | 51° | 10° | 50° | 94% | 1015 mb | -223 ft | |||
| 04-五月 | 01:30 | n/a | 340° | 9 kt | Missing | 11° | 51° | 9° | 48° | 87% | 1015 mb | -223 ft | |||
| 04-五月 | 00:30 | n/a | 320° | 11 kt | Missing | 12° | 53° | 9° | 48° | 82% | 1015 mb | -103 ft | |||
| 03-五月 | 23:30 | n/a | 320° | 11 kt | Missing | 12° | 53° | 9° | 48° | 82% | 1016 mb | -132 ft | |||
| 03-五月 | 22:30 | n/a | 330° | 10 kt | Missing | 12° | 53° | 10° | 50° | 88% | 1016 mb | -132 ft | |||
| 03-五月 | 21:30 | n/a | 330° | 12 kt | Missing | 13° | 55° | 10° | 50° | 82% | 1016 mb | -12 ft | |||
| 03-五月 | 20:30 | n/a | 330° | 11 kt | Missing | 13° | 55° | 10° | 50° | 82% | 1015 mb | 17 ft | |||
| 03-五月 | 19:30 | n/a | 320° | 11 kt | Missing | 13° | 55° | 10° | 50° | 82% | 1015 mb | 17 ft | |||
| 03-五月 | 18:30 | n/a | 300° | 13 kt | Missing | 14° | 57° | 9° | 48° | 72% | 1014 mb | 167 ft | |||
| 03-五月 | 17:30 | n/a | 310° | 14 kt | Missing | 15° | 59° | 10° | 50° | 72% | 1014 mb | 287 ft | |||
| 03-五月 | 16:30 | n/a | 290° | 19 kt | Missing | 16° | 60° | 10° | 50° | 68% | 1013 mb | 436 ft | |||
| 03-五月 | 15:30 | n/a | 300° | 17 kt | Missing | 16° | 60° | 12° | 53° | 77% | 1013 mb | 436 ft | |||
| 03-五月 | 14:30 | n/a | 280° | 17 kt | Missing | 15° | 59° | 12° | 53° | 82% | 1013 mb | 316 ft | |||
| 03-五月 | 13:30 | n/a | 310° | 24 kt | Missing | 19° | 66° | 10° | 50° | 56% | 1013 mb | 796 ft | |||
| 03-五月 | 12:30 | n/a | 310° | 25 kt | Missing | 18° | 64° | 10° | 50° | 59% | 1014 mb | 647 ft | |||
| 03-五月 | 11:30 | n/a | 320° | 24 kt | Missing | 16° | 60° | 10° | 50° | 68% | 1014 mb | 407 ft | |||
| 03-五月 | 10:30 | n/a | 330° | 21 kt | Missing | 15° | 59° | 10° | 50° | 72% | 1014 mb | 287 ft | |||
| 03-五月 | 09:30 | n/a | 330° | 18 kt | Missing | 15° | 59° | 10° | 50° | 72% | 1014 mb | 287 ft | |||
| 03-五月 | 08:30 | n/a | 340° | 18 kt | Missing | 12° | 53° | 9° | 48° | 82% | 1014 mb | -73 ft | |||
| 03-五月 | 07:30 | n/a | 340° | 15 kt | Missing | 10° | 50° | 8° | 46° | 87% | 1013 mb | -284 ft | |||
| 03-五月 | 06:30 | n/a | 350° | 13 kt | Missing | 10° | 50° | 8° | 46° | 87% | 1013 mb | -284 ft | |||
| 03-五月 | 05:30 | n/a | 340° | 13 kt | Missing | 10° | 50° | 8° | 46° | 87% | 1013 mb | -284 ft | |||
| 03-五月 | 04:30 | n/a | 340° | 13 kt | Missing | 11° | 51° | 8° | 46° | 82% | 1012 mb | -134 ft | |||
| 03-五月 | 03:30 | n/a | 340° | 12 kt | Missing | 11° | 51° | 9° | 48° | 87% | 1012 mb | -134 ft |
登入
| 您的瀏覽器不支援. 升級您的瀏覽器 |
